• Join FlightAware (Why Join?)
  • Login
  • US Flag 
11:28PM EST


 

Airport Tracker/Info


-or-


 

Live Flight TrackerFlight Track Log ✈ FIV606 ✈ 13-May-2013 ✈ KTPA - KMCO

Flight Track Log - Related Links

Times and Time Zones

All times are in EDT time to prevent confusion due to time zone crossing. See the FIV606 flight status page for this flight to view local times or setup timezone preferences in your user account.

Time Position Orientation Groundspeed Altitude Reporting Facility
EDT Latitude Longitude Course Direction KTS MPH feet Rate Location/Type
03:02PM 27.9833 -82.5333 360° North 110 127 700  Level Tampa TRACON
03:03PM 27.9833 -82.5333 30° Northeast 140 161 1,800 4,077 Climbing Tampa TRACON
03:04PM 28.0333 -82.5000 30° Northeast 226 260 6,000 4,350 Climbing Tampa TRACON
03:05PM 28.0167 -82.4167 103° East 277 319 10,500 2,381 Climbing Tampa TRACON
03:06PM 28.0167 -82.3000 90° East 380 437 11,000 139 Climbing Tampa TRACON
03:08PM 28.0000 -81.9833 93° East 385 443 11,000  Level Orlando TRACON
03:09PM 28.0333 -81.8833 69° East 373 429 11,000 -500 Level Orlando TRACON
03:10PM 28.0667 -81.7833 69° East 332 382 10,000 -1,240 Descending Orlando TRACON
03:11PM 28.1000 -81.6833 69° East 304 350 8,500 -1,450 Descending Orlando TRACON
03:12PM 28.1167 -81.6000 77° East 302 348 7,100 -1,211 Descending Orlando TRACON
03:13PM 28.1500 -81.5167 66° East 246 283 6,200 -950 Descending Orlando TRACON
03:14PM 28.1667 -81.4500 74° East 239 275 5,200 -1,000 Descending Orlando TRACON
03:15PM 28.2000 -81.3833 60° Northeast 201 231 4,100 -1,050 Descending Orlando TRACON
03:16PM 28.2333 -81.3333 53° Northeast 195 224 3,100 -843 Descending Orlando TRACON
03:17PM 28.2667 -81.3167 24° Northeast 171 197 2,400 -574 Descending Orlando TRACON
03:18PM 28.3167 -81.3333 344° North 165 190 2,000 -579 Descending Orlando TRACON
03:19PM 28.3667 -81.3333 360° North 159 183 1,300 -700 Descending Orlando TRACON
03:20PM 28.4000 -81.3333 360° North 100 115 600 -700 Descending Orlando TRACON
03:22PM 28.4167 -81.3000 26° Northeast  Level FlightAware Approximate
03:29PM 28.4294 -81.3090 26° Northeast  Level Estimated
03:30PM 28.4294 -81.3090 26° Northeast  Level Estimated
03:31PM 28.4294 -81.3090 26° Northeast  Level Estimated
03:32PM 28.4294 -81.3090 26° Northeast  Level Estimated